SAWC

Details ICAO SAWC (FTE)
Name El Calafate
Region Argentina
Timezone America/Argentina/Rio_Gallegos (UTC-3.0)
Plans Departing 44
Arriving 46
Stats Elevation 668 ft / 204 m (AMSL)
Location -50.280236° -72.053217°
Runways 1
Magnetic Variation 12.608° E
Sunrise 2017-12-17 08:33:44 UTC / 2017-12-17 05:33:44 Local
Sunset 2017-12-18 00:57:51 UTC / 2017-12-17 21:57:51 Local
Advertisement - Login to hide

Runways

ID Width Length Bearing (true) Bearing (mag) Surface Threshold Offset Overrun Length
07 148 ft / 45 m 8,359 ft / 2,548 m 83.94° 71.33° Concrete 0 ft / 0 m 0 ft / 0 m
25 148 ft / 45 m 8,359 ft / 2,548 m 263.92° 251.31° Concrete 0 ft / 0 m 0 ft / 0 m

Map

Weather


0- 5 10 15 20 25 30 35+ Temperature / ° C

Clouds and Precipitation
Forecast for 2017-12-17 18:00 UTC. Updated an hour ago

Ground ~20,000 ft ~40,000 ft Winds

METAR

SAWC 171518Z 25028G32KT 9999 FEW035 SCT080 15/00 Q1002

TAF

Not found

Frequencies

Unicom 122.50 MHz EL CALAFATE MULT
Tower 118.20 MHz EL CALAFATE TWR
Approach 118.20 MHz EL CALAFATE APP
Ground 121.80 MHz EL CALAFATE GND
Tower 119.95 MHz EL CALAFATE TWR
Approach 119.95 MHz EL CALAFATE APP
Warning: Do not use this data for real-world aviation or navigation. No guarantee of current accuracy is given.